sensor_id;sensor_type;location;lat;lon;timestamp;temperature;humidity
975;DHT22;6115;49.296;10.602;2023-04-01T00:02:35;8.60;73.00
975;DHT22;6115;49.296;10.602;2023-04-01T00:07:37;8.60;72.30
975;DHT22;6115;49.296;10.602;2023-04-01T00:12:38;8.50;72.40
975;DHT22;6115;49.296;10.602;2023-04-01T00:17:39;8.50;72.40
975;DHT22;6115;49.296;10.602;2023-04-01T00:22:40;8.40;72.10
975;DHT22;6115;49.296;10.602;2023-04-01T00:27:41;8.30;72.20
975;DHT22;6115;49.296;10.602;2023-04-01T00:32:41;8.30;72.30
975;DHT22;6115;49.296;10.602;2023-04-01T00:37:42;8.30;72.60
975;DHT22;6115;49.296;10.602;2023-04-01T00:42:42;8.40;72.60
975;DHT22;6115;49.296;10.602;2023-04-01T00:47:43;8.40;72.00
975;DHT22;6115;49.296;10.602;2023-04-01T00:52:44;8.50;71.30
975;DHT22;6115;49.296;10.602;2023-04-01T00:57:46;8.50;71.00
975;DHT22;6115;49.296;10.602;2023-04-01T01:02:50;8.60;70.10
975;DHT22;6115;49.296;10.602;2023-04-01T01:13:26;8.60;69.70
975;DHT22;6115;49.296;10.602;2023-04-01T01:35:31;8.70;68.20
975;DHT22;6115;49.296;10.602;2023-04-01T01:40:33;8.60;67.80
975;DHT22;6115;49.296;10.602;2023-04-01T01:45:36;8.70;68.40
975;DHT22;6115;49.296;10.602;2023-04-01T01:50:40;8.70;68.30
975;DHT22;6115;49.296;10.602;2023-04-01T01:55:44;8.70;68.30
975;DHT22;6115;49.296;10.602;2023-04-01T02:00:53;8.70;67.80
975;DHT22;6115;49.296;10.602;2023-04-01T02:05:56;8.60;68.20
975;DHT22;6115;49.296;10.602;2023-04-01T02:11:02;8.70;67.70
975;DHT22;6115;49.296;10.602;2023-04-01T02:16:08;8.70;67.40
975;DHT22;6115;49.296;10.602;2023-04-01T02:21:12;8.70;67.40
975;DHT22;6115;49.296;10.602;2023-04-01T02:26:13;8.60;67.90
975;DHT22;6115;49.296;10.602;2023-04-01T02:31:15;8.60;68.30
975;DHT22;6115;49.296;10.602;2023-04-01T02:36:16;8.60;67.70
975;DHT22;6115;49.296;10.602;2023-04-01T02:41:17;8.70;68.00
975;DHT22;6115;49.296;10.602;2023-04-01T02:46:18;8.70;67.90
975;DHT22;6115;49.296;10.602;2023-04-01T02:51:18;8.80;68.10
975;DHT22;6115;49.296;10.602;2023-04-01T02:56:19;8.70;68.10
975;DHT22;6115;49.296;10.602;2023-04-01T03:01:20;8.70;68.40
975;DHT22;6115;49.296;10.602;2023-04-01T03:06:21;8.70;68.00
975;DHT22;6115;49.296;10.602;2023-04-01T03:11:21;8.60;68.60
975;DHT22;6115;49.296;10.602;2023-04-01T03:16:22;8.60;68.80
975;DHT22;6115;49.296;10.602;2023-04-01T03:21:24;8.60;68.50
975;DHT22;6115;49.296;10.602;2023-04-01T03:26:25;8.50;67.90
975;DHT22;6115;49.296;10.602;2023-04-01T03:31:27;8.40;67.30
975;DHT22;6115;49.296;10.602;2023-04-01T03:36:27;8.40;67.60
975;DHT22;6115;49.296;10.602;2023-04-01T03:41:28;8.20;70.10
975;DHT22;6115;49.296;10.602;2023-04-01T03:46:28;8.00;71.20
975;DHT22;6115;49.296;10.602;2023-04-01T03:51:29;7.90;71.90
975;DHT22;6115;49.296;10.602;2023-04-01T03:56:30;7.90;73.00
975;DHT22;6115;49.296;10.602;2023-04-01T04:01:31;7.90;73.10
975;DHT22;6115;49.296;10.602;2023-04-01T04:06:32;7.90;73.90
975;DHT22;6115;49.296;10.602;2023-04-01T04:11:33;8.00;73.30
975;DHT22;6115;49.296;10.602;2023-04-01T04:16:37;8.00;73.30
975;DHT22;6115;49.296;10.602;2023-04-01T04:21:38;8.00;73.60
975;DHT22;6115;49.296;10.602;2023-04-01T04:26:39;8.10;73.70
975;DHT22;6115;49.296;10.602;2023-04-01T04:31:40;8.10;73.30
975;DHT22;6115;49.296;10.602;2023-04-01T04:36:40;8.10;73.30
975;DHT22;6115;49.296;10.602;2023-04-01T04:41:41;8.00;73.20
975;DHT22;6115;49.296;10.602;2023-04-01T04:46:41;8.00;73.50
975;DHT22;6115;49.296;10.602;2023-04-01T04:51:42;8.00;74.20
975;DHT22;6115;49.296;10.602;2023-04-01T04:56:42;8.00;73.90
975;DHT22;6115;49.296;10.602;2023-04-01T05:01:43;8.00;73.20
975;DHT22;6115;49.296;10.602;2023-04-01T05:06:43;8.00;73.20
975;DHT22;6115;49.296;10.602;2023-04-01T05:11:45;8.00;73.20
975;DHT22;6115;49.296;10.602;2023-04-01T05:16:46;8.10;73.30
975;DHT22;6115;49.296;10.602;2023-04-01T05:21:46;8.00;72.40
975;DHT22;6115;49.296;10.602;2023-04-01T05:26:47;8.00;72.40
975;DHT22;6115;49.296;10.602;2023-04-01T05:31:47;8.10;73.00
975;DHT22;6115;49.296;10.602;2023-04-01T05:36:48;8.00;72.60
975;DHT22;6115;49.296;10.602;2023-04-01T05:41:48;8.00;73.20
975;DHT22;6115;49.296;10.602;2023-04-01T05:46:49;8.00;73.20
975;DHT22;6115;49.296;10.602;2023-04-01T05:51:50;8.10;72.50
975;DHT22;6115;49.296;10.602;2023-04-01T05:56:51;8.10;72.00
975;DHT22;6115;49.296;10.602;2023-04-01T06:01:52;8.10;71.50
975;DHT22;6115;49.296;10.602;2023-04-01T06:06:53;8.20;70.90
975;DHT22;6115;49.296;10.602;2023-04-01T06:12:25;8.30;70.40
975;DHT22;6115;49.296;10.602;2023-04-01T06:17:43;8.30;68.60
975;DHT22;6115;49.296;10.602;2023-04-01T07:00:35;9.00;65.10
975;DHT22;6115;49.296;10.602;2023-04-01T07:05:36;9.20;63.80
975;DHT22;6115;49.296;10.602;2023-04-01T07:10:53;9.10;64.40
975;DHT22;6115;49.296;10.602;2023-04-01T07:21:40;9.40;62.60
975;DHT22;6115;49.296;10.602;2023-04-01T07:26:41;9.60;61.50
975;DHT22;6115;49.296;10.602;2023-04-01T07:42:44;9.70;61.00
975;DHT22;6115;49.296;10.602;2023-04-01T07:53:25;9.90;60.10
975;DHT22;6115;49.296;10.602;2023-04-01T08:15:01;10.10;58.50
975;DHT22;6115;49.296;10.602;2023-04-01T08:20:16;10.20;58.30
975;DHT22;6115;49.296;10.602;2023-04-01T08:25:27;10.50;58.00
975;DHT22;6115;49.296;10.602;2023-04-01T08:30:48;10.30;57.10
975;DHT22;6115;49.296;10.602;2023-04-01T08:40:59;10.20;57.70
975;DHT22;6115;49.296;10.602;2023-04-01T08:51:26;10.10;57.60
975;DHT22;6115;49.296;10.602;2023-04-01T09:13:18;10.40;58.60
975;DHT22;6115;49.296;10.602;2023-04-01T09:23:53;10.00;59.40
975;DHT22;6115;49.296;10.602;2023-04-01T09:35:06;9.40;66.10
975;DHT22;6115;49.296;10.602;2023-04-01T09:40:30;9.30;67.00
975;DHT22;6115;49.296;10.602;2023-04-01T10:23:42;9.10;72.40
975;DHT22;6115;49.296;10.602;2023-04-01T10:35:03;9.00;74.10
975;DHT22;6115;49.296;10.602;2023-04-01T10:57:07;9.00;74.90
975;DHT22;6115;49.296;10.602;2023-04-01T11:08:06;9.20;74.30
975;DHT22;6115;49.296;10.602;2023-04-01T11:30:14;9.00;76.60
975;DHT22;6115;49.296;10.602;2023-04-01T11:41:15;8.90;77.50
975;DHT22;6115;49.296;10.602;2023-04-01T11:46:25;8.90;77.70
975;DHT22;6115;49.296;10.602;2023-04-01T11:51:43;9.10;77.70
975;DHT22;6115;49.296;10.602;2023-04-01T11:56:56;9.00;77.30
975;DHT22;6115;49.296;10.602;2023-04-01T12:02:16;9.00;77.50
975;DHT22;6115;49.296;10.602;2023-04-01T12:13:09;9.00;78.90
975;DHT22;6115;49.296;10.602;2023-04-01T12:23:51;8.90;78.80
975;DHT22;6115;49.296;10.602;2023-04-01T12:34:29;9.00;78.60
975;DHT22;6115;49.296;10.602;2023-04-01T12:45:14;9.20;76.00
975;DHT22;6115;49.296;10.602;2023-04-01T12:55:39;9.30;74.40
975;DHT22;6115;49.296;10.602;2023-04-01T13:01:03;9.40;73.10
975;DHT22;6115;49.296;10.602;2023-04-01T13:17:43;9.70;71.40
975;DHT22;6115;49.296;10.602;2023-04-01T13:27:33;9.50;71.60
975;DHT22;6115;49.296;10.602;2023-04-01T13:39:06;9.60;72.60
975;DHT22;6115;49.296;10.602;2023-04-01T13:44:18;9.70;72.90
975;DHT22;6115;49.296;10.602;2023-04-01T14:00:35;9.80;70.00
975;DHT22;6115;49.296;10.602;2023-04-01T14:39:19;9.60;67.60
975;DHT22;6115;49.296;10.602;2023-04-01T14:49:53;9.90;67.30
975;DHT22;6115;49.296;10.602;2023-04-01T14:54:54;10.20;67.70
975;DHT22;6115;49.296;10.602;2023-04-01T15:00:00;10.10;65.80
975;DHT22;6115;49.296;10.602;2023-04-01T15:21:39;9.80;67.60
975;DHT22;6115;49.296;10.602;2023-04-01T15:37:39;9.60;68.10
975;DHT22;6115;49.296;10.602;2023-04-01T15:43:12;9.50;68.50
975;DHT22;6115;49.296;10.602;2023-04-01T15:48:45;9.40;69.00
975;DHT22;6115;49.296;10.602;2023-04-01T15:54:07;9.30;69.60
975;DHT22;6115;49.296;10.602;2023-04-01T16:21:05;9.20;70.70
975;DHT22;6115;49.296;10.602;2023-04-01T16:26:21;9.30;69.90
975;DHT22;6115;49.296;10.602;2023-04-01T16:31:35;9.20;70.80
975;DHT22;6115;49.296;10.602;2023-04-01T16:36:47;9.20;70.00
975;DHT22;6115;49.296;10.602;2023-04-01T16:47:15;9.30;70.00
975;DHT22;6115;49.296;10.602;2023-04-01T16:58:07;9.40;68.90
975;DHT22;6115;49.296;10.602;2023-04-01T17:03:36;9.40;68.80
975;DHT22;6115;49.296;10.602;2023-04-01T17:08:48;9.30;68.50
975;DHT22;6115;49.296;10.602;2023-04-01T17:19:29;9.20;69.40
975;DHT22;6115;49.296;10.602;2023-04-01T17:25:13;9.10;69.30
975;DHT22;6115;49.296;10.602;2023-04-01T17:52:16;9.10;69.40
975;DHT22;6115;49.296;10.602;2023-04-01T17:57:30;9.20;69.40
975;DHT22;6115;49.296;10.602;2023-04-01T18:07:59;9.20;70.30
975;DHT22;6115;49.296;10.602;2023-04-01T18:23:59;9.10;70.80
975;DHT22;6115;49.296;10.602;2023-04-01T18:29:26;9.20;70.70
975;DHT22;6115;49.296;10.602;2023-04-01T18:34:56;9.20;70.50
975;DHT22;6115;49.296;10.602;2023-04-01T18:55:59;9.00;72.90
975;DHT22;6115;49.296;10.602;2023-04-01T19:11:32;9.00;72.70
975;DHT22;6115;49.296;10.602;2023-04-01T19:17:07;9.00;72.90
975;DHT22;6115;49.296;10.602;2023-04-01T19:23:15;9.00;73.00
975;DHT22;6115;49.296;10.602;2023-04-01T19:27:49;9.10;72.80
975;DHT22;6115;49.296;10.602;2023-04-01T19:48:54;8.90;74.30
975;DHT22;6115;49.296;10.602;2023-04-01T20:15:34;8.80;75.80
975;DHT22;6115;49.296;10.602;2023-04-01T20:20:36;8.80;76.40
975;DHT22;6115;49.296;10.602;2023-04-01T20:25:52;8.60;76.50
975;DHT22;6115;49.296;10.602;2023-04-01T20:57:34;8.60;74.40
975;DHT22;6115;49.296;10.602;2023-04-01T21:08:55;8.50;73.60
975;DHT22;6115;49.296;10.602;2023-04-01T21:19:25;8.60;73.20
975;DHT22;6115;49.296;10.602;2023-04-01T21:25:10;8.60;72.30
975;DHT22;6115;49.296;10.602;2023-04-01T21:30:41;8.60;72.20
975;DHT22;6115;49.296;10.602;2023-04-01T21:36:16;8.60;72.00
975;DHT22;6115;49.296;10.602;2023-04-01T21:41:42;8.60;72.30
975;DHT22;6115;49.296;10.602;2023-04-01T22:09:03;8.60;72.50
975;DHT22;6115;49.296;10.602;2023-04-01T22:19:32;8.60;72.80
975;DHT22;6115;49.296;10.602;2023-04-01T22:30:00;8.70;73.10
975;DHT22;6115;49.296;10.602;2023-04-01T22:35:09;8.50;73.30
975;DHT22;6115;49.296;10.602;2023-04-01T22:40:22;8.60;73.70
975;DHT22;6115;49.296;10.602;2023-04-01T22:45:31;8.60;73.70
975;DHT22;6115;49.296;10.602;2023-04-01T22:50:57;8.40;73.80
975;DHT22;6115;49.296;10.602;2023-04-01T22:56:06;8.50;74.50
975;DHT22;6115;49.296;10.602;2023-04-01T23:01:14;8.50;74.50
975;DHT22;6115;49.296;10.602;2023-04-01T23:06:24;8.50;75.00
975;DHT22;6115;49.296;10.602;2023-04-01T23:11:31;8.60;74.30
975;DHT22;6115;49.296;10.602;2023-04-01T23:16:41;8.50;74.70
975;DHT22;6115;49.296;10.602;2023-04-01T23:27:21;8.60;75.30
975;DHT22;6115;49.296;10.602;2023-04-01T23:32:25;8.50;76.00
975;DHT22;6115;49.296;10.602;2023-04-01T23:37:27;8.40;77.10
975;DHT22;6115;49.296;10.602;2023-04-01T23:42:32;8.30;78.30
975;DHT22;6115;49.296;10.602;2023-04-01T23:47:39;8.30;78.80
975;DHT22;6115;49.296;10.602;2023-04-01T23:52:44;8.30;79.10
